sensor_id;sensor_type;location;lat;lon;timestamp;P1;P2;P0
77699;PMS5003;66867;42.658;23.320;2023-02-15T00:00:00;66;55;
77699;PMS5003;66867;42.658;23.320;2023-02-15T00:01:09;78;59;
77699;PMS5003;66867;42.658;23.320;2023-02-15T00:02:00;70;57;
77699;PMS5003;66867;42.658;23.320;2023-02-15T00:03:00;72;58;
77699;PMS5003;66867;42.658;23.320;2023-02-15T00:04:00;75;59;
77699;PMS5003;66867;42.658;23.320;2023-02-15T00:05:00;69;56;
77699;PMS5003;66867;42.658;23.320;2023-02-15T00:06:00;71;57;
77699;PMS5003;66867;42.658;23.320;2023-02-15T00:07:00;70;56;
77699;PMS5003;66867;42.658;23.320;2023-02-15T00:08:00;76;59;
77699;PMS5003;66867;42.658;23.320;2023-02-15T00:09:01;70;56;
77699;PMS5003;66867;42.658;23.320;2023-02-15T00:10:00;73;59;
77699;PMS5003;66867;42.658;23.320;2023-02-15T00:11:06;69;58;
77699;PMS5003;66867;42.658;23.320;2023-02-15T00:12:00;73;60;
77699;PMS5003;66867;42.658;23.320;2023-02-15T00:13:00;73;58;
77699;PMS5003;66867;42.658;23.320;2023-02-15T00:14:00;65;54;
77699;PMS5003;66867;42.658;23.320;2023-02-15T00:15:00;75;60;
77699;PMS5003;66867;42.658;23.320;2023-02-15T00:16:02;70;55;
77699;PMS5003;66867;42.658;23.320;2023-02-15T00:17:00;75;59;
77699;PMS5003;66867;42.658;23.320;2023-02-15T00:18:00;71;55;
77699;PMS5003;66867;42.658;23.320;2023-02-15T00:19:00;76;59;
77699;PMS5003;66867;42.658;23.320;2023-02-15T00:20:00;71;58;
77699;PMS5003;66867;42.658;23.320;2023-02-15T00:21:05;71;58;
77699;PMS5003;66867;42.658;23.320;2023-02-15T00:22:00;77;59;
77699;PMS5003;66867;42.658;23.320;2023-02-15T00:23:00;70;58;
77699;PMS5003;66867;42.658;23.320;2023-02-15T00:24:02;71;58;
77699;PMS5003;66867;42.658;23.320;2023-02-15T00:25:00;75;59;
77699;PMS5003;66867;42.658;23.320;2023-02-15T00:26:04;65;54;
77699;PMS5003;66867;42.658;23.320;2023-02-15T00:27:00;70;58;
77699;PMS5003;66867;42.658;23.320;2023-02-15T00:28:00;73;58;
77699;PMS5003;66867;42.658;23.320;2023-02-15T00:29:00;70;56;
77699;PMS5003;66867;42.658;23.320;2023-02-15T00:30:00;65;54;
77699;PMS5003;66867;42.658;23.320;2023-02-15T00:31:02;73;58;
77699;PMS5003;66867;42.658;23.320;2023-02-15T00:32:00;73;58;
77699;PMS5003;66867;42.658;23.320;2023-02-15T00:33:00;74;58;
77699;PMS5003;66867;42.658;23.320;2023-02-15T00:34:02;70;55;
77699;PMS5003;66867;42.658;23.320;2023-02-15T00:35:00;75;60;
77699;PMS5003;66867;42.658;23.320;2023-02-15T00:36:01;71;58;
77699;PMS5003;66867;42.658;23.320;2023-02-15T00:37:00;72;56;
77699;PMS5003;66867;42.658;23.320;2023-02-15T00:38:00;70;56;
77699;PMS5003;66867;42.658;23.320;2023-02-15T00:39:00;78;58;
77699;PMS5003;66867;42.658;23.320;2023-02-15T00:40:00;71;56;
77699;PMS5003;66867;42.658;23.320;2023-02-15T00:41:03;69;55;
77699;PMS5003;66867;42.658;23.320;2023-02-15T00:42:00;74;58;
77699;PMS5003;66867;42.658;23.320;2023-02-15T00:43:00;72;57;
77699;PMS5003;66867;42.658;23.320;2023-02-15T00:44:00;68;55;
77699;PMS5003;66867;42.658;23.320;2023-02-15T00:45:00;65;54;
77699;PMS5003;66867;42.658;23.320;2023-02-15T00:46:00;71;56;
77699;PMS5003;66867;42.658;23.320;2023-02-15T00:47:00;67;55;
77699;PMS5003;66867;42.658;23.320;2023-02-15T00:48:00;72;58;
77699;PMS5003;66867;42.658;23.320;2023-02-15T00:49:00;68;54;
77699;PMS5003;66867;42.658;23.320;2023-02-15T00:50:00;68;55;
77699;PMS5003;66867;42.658;23.320;2023-02-15T00:51:00;71;52;
77699;PMS5003;66867;42.658;23.320;2023-02-15T00:52:00;73;57;
77699;PMS5003;66867;42.658;23.320;2023-02-15T00:53:00;69;54;
77699;PMS5003;66867;42.658;23.320;2023-02-15T00:54:00;65;54;
77699;PMS5003;66867;42.658;23.320;2023-02-15T00:55:00;77;59;
77699;PMS5003;66867;42.658;23.320;2023-02-15T00:56:00;73;56;
77699;PMS5003;66867;42.658;23.320;2023-02-15T00:57:00;70;55;
77699;PMS5003;66867;42.658;23.320;2023-02-15T00:58:00;74;59;
77699;PMS5003;66867;42.658;23.320;2023-02-15T00:59:00;73;58;
77699;PMS5003;66867;42.658;23.320;2023-02-15T01:00:00;69;55;
77699;PMS5003;66867;42.658;23.320;2023-02-15T01:01:02;69;55;
77699;PMS5003;66867;42.658;23.320;2023-02-15T01:02:00;70;55;
77699;PMS5003;66867;42.658;23.320;2023-02-15T01:03:00;66;55;
77699;PMS5003;66867;42.658;23.320;2023-02-15T01:04:01;74;56;
77699;PMS5003;66867;42.658;23.320;2023-02-15T01:05:00;71;59;
77699;PMS5003;66867;42.658;23.320;2023-02-15T01:06:00;74;58;
77699;PMS5003;66867;42.658;23.320;2023-02-15T01:07:00;70;55;
77699;PMS5003;66867;42.658;23.320;2023-02-15T01:08:01;70;58;
77699;PMS5003;66867;42.658;23.320;2023-02-15T01:09:00;69;56;
77699;PMS5003;66867;42.658;23.320;2023-02-15T01:10:00;66;55;
77699;PMS5003;66867;42.658;23.320;2023-02-15T01:11:11;69;55;
77699;PMS5003;66867;42.658;23.320;2023-02-15T01:12:00;75;58;
77699;PMS5003;66867;42.658;23.320;2023-02-15T01:13:00;68;56;
77699;PMS5003;66867;42.658;23.320;2023-02-15T01:14:00;69;56;
77699;PMS5003;66867;42.658;23.320;2023-02-15T01:15:00;69;55;
77699;PMS5003;66867;42.658;23.320;2023-02-15T01:16:00;70;55;
77699;PMS5003;66867;42.658;23.320;2023-02-15T01:17:00;71;57;
77699;PMS5003;66867;42.658;23.320;2023-02-15T01:18:00;66;54;
77699;PMS5003;66867;42.658;23.320;2023-02-15T01:19:00;65;54;
77699;PMS5003;66867;42.658;23.320;2023-02-15T01:20:00;69;56;
77699;PMS5003;66867;42.658;23.320;2023-02-15T01:21:08;69;55;
77699;PMS5003;66867;42.658;23.320;2023-02-15T01:22:00;65;54;
77699;PMS5003;66867;42.658;23.320;2023-02-15T01:23:00;73;58;
77699;PMS5003;66867;42.658;23.320;2023-02-15T01:24:01;71;55;
77699;PMS5003;66867;42.658;23.320;2023-02-15T01:25:00;72;58;
77699;PMS5003;66867;42.658;23.320;2023-02-15T01:26:01;69;56;
77699;PMS5003;66867;42.658;23.320;2023-02-15T01:27:00;68;55;
77699;PMS5003;66867;42.658;23.320;2023-02-15T01:28:01;69;56;
77699;PMS5003;66867;42.658;23.320;2023-02-15T01:29:00;67;55;
77699;PMS5003;66867;42.658;23.320;2023-02-15T01:30:00;68;55;
77699;PMS5003;66867;42.658;23.320;2023-02-15T01:31:05;68;55;
77699;PMS5003;66867;42.658;23.320;2023-02-15T01:32:00;69;57;
77699;PMS5003;66867;42.658;23.320;2023-02-15T01:33:00;65;52;
77699;PMS5003;66867;42.658;23.320;2023-02-15T01:34:00;74;58;
77699;PMS5003;66867;42.658;23.320;2023-02-15T01:35:01;61;52;
77699;PMS5003;66867;42.658;23.320;2023-02-15T01:36:00;69;54;
77699;PMS5003;66867;42.658;23.320;2023-02-15T01:37:00;69;55;
77699;PMS5003;66867;42.658;23.320;2023-02-15T01:38:00;68;55;
77699;PMS5003;66867;42.658;23.320;2023-02-15T01:39:00;69;56;
77699;PMS5003;66867;42.658;23.320;2023-02-15T01:40:01;69;57;
77699;PMS5003;66867;42.658;23.320;2023-02-15T01:41:00;69;55;
77699;PMS5003;66867;42.658;23.320;2023-02-15T01:42:00;72;58;
77699;PMS5003;66867;42.658;23.320;2023-02-15T01:43:00;69;55;
77699;PMS5003;66867;42.658;23.320;2023-02-15T01:44:02;69;55;
77699;PMS5003;66867;42.658;23.320;2023-02-15T01:45:04;70;54;
77699;PMS5003;66867;42.658;23.320;2023-02-15T01:46:00;69;55;
77699;PMS5003;66867;42.658;23.320;2023-02-15T01:47:00;69;54;
77699;PMS5003;66867;42.658;23.320;2023-02-15T01:48:05;70;56;
77699;PMS5003;66867;42.658;23.320;2023-02-15T01:49:07;71;54;
77699;PMS5003;66867;42.658;23.320;2023-02-15T01:50:06;70;56;
77699;PMS5003;66867;42.658;23.320;2023-02-15T01:51:01;70;58;
77699;PMS5003;66867;42.658;23.320;2023-02-15T01:52:00;72;57;
77699;PMS5003;66867;42.658;23.320;2023-02-15T01:53:06;66;55;
77699;PMS5003;66867;42.658;23.320;2023-02-15T01:54:07;69;55;
77699;PMS5003;66867;42.658;23.320;2023-02-15T01:55:00;69;55;
77699;PMS5003;66867;42.658;23.320;2023-02-15T01:56:05;71;58;
77699;PMS5003;66867;42.658;23.320;2023-02-15T01:57:05;69;55;
77699;PMS5003;66867;42.658;23.320;2023-02-15T01:58:00;65;55;
77699;PMS5003;66867;42.658;23.320;2023-02-15T01:59:06;64;52;
77699;PMS5003;66867;42.658;23.320;2023-02-15T02:00:02;69;55;
77699;PMS5003;66867;42.658;23.320;2023-02-15T02:01:00;66;54;
77699;PMS5003;66867;42.658;23.320;2023-02-15T02:02:01;73;58;
77699;PMS5003;66867;42.658;23.320;2023-02-15T02:03:01;68;55;
77699;PMS5003;66867;42.658;23.320;2023-02-15T02:05:02;65;54;
77699;PMS5003;66867;42.658;23.320;2023-02-15T02:06:00;65;54;
77699;PMS5003;66867;42.658;23.320;2023-02-15T02:07:00;66;54;
77699;PMS5003;66867;42.658;23.320;2023-02-15T02:08:01;73;58;
77699;PMS5003;66867;42.658;23.320;2023-02-15T02:09:00;69;55;
77699;PMS5003;66867;42.658;23.320;2023-02-15T02:10:01;69;58;
77699;PMS5003;66867;42.658;23.320;2023-02-15T02:11:00;70;56;
77699;PMS5003;66867;42.658;23.320;2023-02-15T02:12:00;67;54;
77699;PMS5003;66867;42.658;23.320;2023-02-15T02:13:03;69;56;
77699;PMS5003;66867;42.658;23.320;2023-02-15T02:14:00;65;54;
77699;PMS5003;66867;42.658;23.320;2023-02-15T02:15:01;68;55;
77699;PMS5003;66867;42.658;23.320;2023-02-15T02:16:06;67;54;
77699;PMS5003;66867;42.658;23.320;2023-02-15T02:17:09;67;55;
77699;PMS5003;66867;42.658;23.320;2023-02-15T02:18:20;69;57;
77699;PMS5003;66867;42.658;23.320;2023-02-15T02:22:35;69;54;
77699;PMS5003;66867;42.658;23.320;2023-02-15T02:24:17;71;55;
77699;PMS5003;66867;42.658;23.320;2023-02-15T02:27:21;68;55;
77699;PMS5003;66867;42.658;23.320;2023-02-15T02:35:15;67;55;
77699;PMS5003;66867;42.658;23.320;2023-02-15T02:36:07;66;54;
77699;PMS5003;66867;42.658;23.320;2023-02-15T02:40:13;64;54;
77699;PMS5003;66867;42.658;23.320;2023-02-15T02:41:12;70;58;
77699;PMS5003;66867;42.658;23.320;2023-02-15T02:43:11;64;51;
77699;PMS5003;66867;42.658;23.320;2023-02-15T02:45:05;68;54;
77699;PMS5003;66867;42.658;23.320;2023-02-15T02:46:06;69;53;
77699;PMS5003;66867;42.658;23.320;2023-02-15T02:47:12;63;54;
77699;PMS5003;66867;42.658;23.320;2023-02-15T02:48:05;65;53;
77699;PMS5003;66867;42.658;23.320;2023-02-15T02:49:01;70;55;
77699;PMS5003;66867;42.658;23.320;2023-02-15T02:50:04;69;57;
77699;PMS5003;66867;42.658;23.320;2023-02-15T02:51:00;65;52;
77699;PMS5003;66867;42.658;23.320;2023-02-15T02:52:03;64;52;
77699;PMS5003;66867;42.658;23.320;2023-02-15T02:53:00;69;55;
77699;PMS5003;66867;42.658;23.320;2023-02-15T02:54:03;69;54;
77699;PMS5003;66867;42.658;23.320;2023-02-15T02:55:01;68;55;
77699;PMS5003;66867;42.658;23.320;2023-02-15T02:56:15;70;55;
77699;PMS5003;66867;42.658;23.320;2023-02-15T02:57:04;65;53;
77699;PMS5003;66867;42.658;23.320;2023-02-15T02:59:02;68;55;
77699;PMS5003;66867;42.658;23.320;2023-02-15T03:00:03;65;54;
77699;PMS5003;66867;42.658;23.320;2023-02-15T03:01:03;65;54;
77699;PMS5003;66867;42.658;23.320;2023-02-15T03:02:05;68;55;
77699;PMS5003;66867;42.658;23.320;2023-02-15T03:03:04;67;54;
77699;PMS5003;66867;42.658;23.320;2023-02-15T03:04:03;64;51;
77699;PMS5003;66867;42.658;23.320;2023-02-15T03:05:07;68;55;
77699;PMS5003;66867;42.658;23.320;2023-02-15T03:06:04;63;54;
77699;PMS5003;66867;42.658;23.320;2023-02-15T03:07:02;68;55;
77699;PMS5003;66867;42.658;23.320;2023-02-15T03:08:01;66;52;
77699;PMS5003;66867;42.658;23.320;2023-02-15T03:09:08;61;50;
77699;PMS5003;66867;42.658;23.320;2023-02-15T03:10:02;62;51;
77699;PMS5003;66867;42.658;23.320;2023-02-15T03:11:01;62;52;
77699;PMS5003;66867;42.658;23.320;2023-02-15T03:12:01;64;54;
77699;PMS5003;66867;42.658;23.320;2023-02-15T03:13:00;61;51;
77699;PMS5003;66867;42.658;23.320;2023-02-15T03:14:00;65;51;
77699;PMS5003;66867;42.658;23.320;2023-02-15T03:16:01;65;52;
77699;PMS5003;66867;42.658;23.320;2023-02-15T03:17:00;68;54;
77699;PMS5003;66867;42.658;23.320;2023-02-15T03:18:01;59;49;
77699;PMS5003;66867;42.658;23.320;2023-02-15T03:19:05;65;52;
77699;PMS5003;66867;42.658;23.320;2023-02-15T03:20:04;63;52;
77699;PMS5003;66867;42.658;23.320;2023-02-15T03:21:01;65;52;
77699;PMS5003;66867;42.658;23.320;2023-02-15T03:22:04;69;55;
77699;PMS5003;66867;42.658;23.320;2023-02-15T03:23:04;61;51;
77699;PMS5003;66867;42.658;23.320;2023-02-15T03:24:09;68;56;
77699;PMS5003;66867;42.658;23.320;2023-02-15T03:25:04;65;54;
77699;PMS5003;66867;42.658;23.320;2023-02-15T03:26:03;65;54;
77699;PMS5003;66867;42.658;23.320;2023-02-15T03:27:02;69;56;
77699;PMS5003;66867;42.658;23.320;2023-02-15T03:28:04;65;54;
77699;PMS5003;66867;42.658;23.320;2023-02-15T03:29:02;62;52;
77699;PMS5003;66867;42.658;23.320;2023-02-15T03:30:02;65;51;
77699;PMS5003;66867;42.658;23.320;2023-02-15T03:31:03;65;54;
77699;PMS5003;66867;42.658;23.320;2023-02-15T03:32:03;61;51;
77699;PMS5003;66867;42.658;23.320;2023-02-15T03:33:01;64;51;
77699;PMS5003;66867;42.658;23.320;2023-02-15T03:34:03;65;54;
77699;PMS5003;66867;42.658;23.320;2023-02-15T03:35:01;61;51;
77699;PMS5003;66867;42.658;23.320;2023-02-15T03:36:05;65;51;
77699;PMS5003;66867;42.658;23.320;2023-02-15T03:37:10;62;51;
77699;PMS5003;66867;42.658;23.320;2023-02-15T03:38:01;67;53;
77699;PMS5003;66867;42.658;23.320;2023-02-15T03:39:12;57;47;
77699;PMS5003;66867;42.658;23.320;2023-02-15T03:41:01;61;51;
77699;PMS5003;66867;42.658;23.320;2023-02-15T03:42:14;66;54;
77699;PMS5003;66867;42.658;23.320;2023-02-15T03:43:14;63;52;
77699;PMS5003;66867;42.658;23.320;2023-02-15T03:44:06;61;51;
77699;PMS5003;66867;42.658;23.320;2023-02-15T03:45:03;64;52;
77699;PMS5003;66867;42.658;23.320;2023-02-15T03:46:08;70;54;
77699;PMS5003;66867;42.658;23.320;2023-02-15T03:47:15;60;50;
77699;PMS5003;66867;42.658;23.320;2023-02-15T03:48:01;61;50;
77699;PMS5003;66867;42.658;23.320;2023-02-15T03:49:08;61;51;
77699;PMS5003;66867;42.658;23.320;2023-02-15T03:51:03;64;54;
77699;PMS5003;66867;42.658;23.320;2023-02-15T03:52:02;61;51;
77699;PMS5003;66867;42.658;23.320;2023-02-15T03:53:02;64;52;
77699;PMS5003;66867;42.658;23.320;2023-02-15T03:54:10;62;52;
77699;PMS5003;66867;42.658;23.320;2023-02-15T03:55:00;61;51;
77699;PMS5003;66867;42.658;23.320;2023-02-15T03:56:00;59;50;
77699;PMS5003;66867;42.658;23.320;2023-02-15T03:57:00;61;51;
77699;PMS5003;66867;42.658;23.320;2023-02-15T03:58:00;66;55;
77699;PMS5003;66867;42.658;23.320;2023-02-15T03:59:00;65;52;
77699;PMS5003;66867;42.658;23.320;2023-02-15T04:00:04;61;51;
77699;PMS5003;66867;42.658;23.320;2023-02-15T04:01:05;61;51;
77699;PMS5003;66867;42.658;23.320;2023-02-15T04:04:07;64;52;
77699;PMS5003;66867;42.658;23.320;2023-02-15T04:05:00;60;50;
77699;PMS5003;66867;42.658;23.320;2023-02-15T04:06:02;64;52;
77699;PMS5003;66867;42.658;23.320;2023-02-15T04:07:01;64;51;
77699;PMS5003;66867;42.658;23.320;2023-02-15T04:08:01;66;53;
77699;PMS5003;66867;42.658;23.320;2023-02-15T04:09:00;65;51;
77699;PMS5003;66867;42.658;23.320;2023-02-15T04:10:00;60;50;
77699;PMS5003;66867;42.658;23.320;2023-02-15T04:11:00;65;54;
77699;PMS5003;66867;42.658;23.320;2023-02-15T04:12:00;62;52;
77699;PMS5003;66867;42.658;23.320;2023-02-15T04:13:00;61;51;
77699;PMS5003;66867;42.658;23.320;2023-02-15T04:14:00;65;52;
77699;PMS5003;66867;42.658;23.320;2023-02-15T04:15:00;66;52;
77699;PMS5003;66867;42.658;23.320;2023-02-15T04:16:00;61;52;
77699;PMS5003;66867;42.658;23.320;2023-02-15T04:17:00;59;50;
77699;PMS5003;66867;42.658;23.320;2023-02-15T04:18:02;65;54;
77699;PMS5003;66867;42.658;23.320;2023-02-15T04:19:00;63;52;
77699;PMS5003;66867;42.658;23.320;2023-02-15T04:20:00;64;53;
77699;PMS5003;66867;42.658;23.320;2023-02-15T04:21:00;63;51;
77699;PMS5003;66867;42.658;23.320;2023-02-15T04:22:00;59;49;
77699;PMS5003;66867;42.658;23.320;2023-02-15T04:23:00;66;55;
77699;PMS5003;66867;42.658;23.320;2023-02-15T04:24:00;61;51;
77699;PMS5003;66867;42.658;23.320;2023-02-15T04:25:00;67;52;
77699;PMS5003;66867;42.658;23.320;2023-02-15T04:26:04;65;52;
77699;PMS5003;66867;42.658;23.320;2023-02-15T04:27:01;63;50;
77699;PMS5003;66867;42.658;23.320;2023-02-15T04:28:00;58;50;
77699;PMS5003;66867;42.658;23.320;2023-02-15T04:29:00;58;50;
77699;PMS5003;66867;42.658;23.320;2023-02-15T04:30:00;62;51;
77699;PMS5003;66867;42.658;23.320;2023-02-15T04:31:00;69;54;
77699;PMS5003;66867;42.658;23.320;2023-02-15T04:32:01;63;54;
77699;PMS5003;66867;42.658;23.320;2023-02-15T04:33:00;61;50;
77699;PMS5003;66867;42.658;23.320;2023-02-15T04:34:00;69;52;
77699;PMS5003;66867;42.658;23.320;2023-02-15T04:35:00;64;51;
77699;PMS5003;66867;42.658;23.320;2023-02-15T04:36:00;65;54;
77699;PMS5003;66867;42.658;23.320;2023-02-15T04:37:00;64;53;
77699;PMS5003;66867;42.658;23.320;2023-02-15T04:38:00;63;50;
77699;PMS5003;66867;42.658;23.320;2023-02-15T04:39:00;66;53;
77699;PMS5003;66867;42.658;23.320;2023-02-15T04:40:00;56;48;
77699;PMS5003;66867;42.658;23.320;2023-02-15T04:41:00;61;51;
77699;PMS5003;66867;42.658;23.320;2023-02-15T04:42:00;65;52;
77699;PMS5003;66867;42.658;23.320;2023-02-15T04:43:00;60;51;
77699;PMS5003;66867;42.658;23.320;2023-02-15T04:44:01;61;51;
77699;PMS5003;66867;42.658;23.320;2023-02-15T04:45:00;65;53;
77699;PMS5003;66867;42.658;23.320;2023-02-15T04:46:00;63;52;
77699;PMS5003;66867;42.658;23.320;2023-02-15T04:47:00;68;54;
77699;PMS5003;66867;42.658;23.320;2023-02-15T04:48:00;67;56;
77699;PMS5003;66867;42.658;23.320;2023-02-15T04:49:00;66;53;
77699;PMS5003;66867;42.658;23.320;2023-02-15T04:50:00;65;52;
77699;PMS5003;66867;42.658;23.320;2023-02-15T04:51:05;61;51;
77699;PMS5003;66867;42.658;23.320;2023-02-15T04:52:00;61;50;
77699;PMS5003;66867;42.658;23.320;2023-02-15T04:53:00;61;50;
77699;PMS5003;66867;42.658;23.320;2023-02-15T04:54:00;62;51;
77699;PMS5003;66867;42.658;23.320;2023-02-15T04:55:00;65;52;
77699;PMS5003;66867;42.658;23.320;2023-02-15T04:56:00;63;52;
77699;PMS5003;66867;42.658;23.320;2023-02-15T04:57:00;66;55;
77699;PMS5003;66867;42.658;23.320;2023-02-15T04:58:00;64;52;
77699;PMS5003;66867;42.658;23.320;2023-02-15T04:59:00;64;53;
77699;PMS5003;66867;42.658;23.320;2023-02-15T05:00:00;65;52;
77699;PMS5003;66867;42.658;23.320;2023-02-15T05:01:00;65;53;
77699;PMS5003;66867;42.658;23.320;2023-02-15T05:02:01;76;58;
77699;PMS5003;66867;42.658;23.320;2023-02-15T05:03:00;60;50;
77699;PMS5003;66867;42.658;23.320;2023-02-15T05:04:00;60;50;
77699;PMS5003;66867;42.658;23.320;2023-02-15T05:05:00;62;52;
77699;PMS5003;66867;42.658;23.320;2023-02-15T05:06:00;61;51;
77699;PMS5003;66867;42.658;23.320;2023-02-15T05:07:00;61;51;
77699;PMS5003;66867;42.658;23.320;2023-02-15T05:08:00;61;50;
77699;PMS5003;66867;42.658;23.320;2023-02-15T05:09:00;65;52;
77699;PMS5003;66867;42.658;23.320;2023-02-15T05:10:00;61;51;
77699;PMS5003;66867;42.658;23.320;2023-02-15T05:11:00;66;55;
77699;PMS5003;66867;42.658;23.320;2023-02-15T05:12:00;66;54;
77699;PMS5003;66867;42.658;23.320;2023-02-15T05:13:00;62;50;
77699;PMS5003;66867;42.658;23.320;2023-02-15T05:14:00;61;51;
77699;PMS5003;66867;42.658;23.320;2023-02-15T05:15:00;64;52;
77699;PMS5003;66867;42.658;23.320;2023-02-15T05:16:00;62;50;
77699;PMS5003;66867;42.658;23.320;2023-02-15T05:17:00;63;53;
77699;PMS5003;66867;42.658;23.320;2023-02-15T05:18:00;65;55;
77699;PMS5003;66867;42.658;23.320;2023-02-15T05:19:00;63;52;
77699;PMS5003;66867;42.658;23.320;2023-02-15T05:20:00;62;51;
77699;PMS5003;66867;42.658;23.320;2023-02-15T05:21:00;67;54;
77699;PMS5003;66867;42.658;23.320;2023-02-15T05:22:00;63;52;
77699;PMS5003;66867;42.658;23.320;2023-02-15T05:23:00;66;52;
77699;PMS5003;66867;42.658;23.320;2023-02-15T05:24:00;61;49;
77699;PMS5003;66867;42.658;23.320;2023-02-15T05:25:00;70;55;
77699;PMS5003;66867;42.658;23.320;2023-02-15T05:26:00;61;48;
77699;PMS5003;66867;42.658;23.320;2023-02-15T05:27:00;62;51;
77699;PMS5003;66867;42.658;23.320;2023-02-15T05:28:01;65;54;
77699;PMS5003;66867;42.658;23.320;2023-02-15T05:29:00;62;51;
77699;PMS5003;66867;42.658;23.320;2023-02-15T05:30:00;64;53;
77699;PMS5003;66867;42.658;23.320;2023-02-15T05:31:07;70;55;
77699;PMS5003;66867;42.658;23.320;2023-02-15T05:32:00;66;54;
77699;PMS5003;66867;42.658;23.320;2023-02-15T05:33:00;61;50;
77699;PMS5003;66867;42.658;23.320;2023-02-15T05:34:00;62;49;
77699;PMS5003;66867;42.658;23.320;2023-02-15T05:35:00;68;53;
77699;PMS5003;66867;42.658;23.320;2023-02-15T05:36:00;65;52;
77699;PMS5003;66867;42.658;23.320;2023-02-15T05:37:00;65;52;
77699;PMS5003;66867;42.658;23.320;2023-02-15T05:38:00;64;53;
77699;PMS5003;66867;42.658;23.320;2023-02-15T05:39:00;61;51;
77699;PMS5003;66867;42.658;23.320;2023-02-15T05:40:00;64;52;
77699;PMS5003;66867;42.658;23.320;2023-02-15T05:41:00;66;53;
77699;PMS5003;66867;42.658;23.320;2023-02-15T05:42:00;62;51;
77699;PMS5003;66867;42.658;23.320;2023-02-15T05:43:00;61;48;
77699;PMS5003;66867;42.658;23.320;2023-02-15T05:44:00;62;50;
77699;PMS5003;66867;42.658;23.320;2023-02-15T05:45:00;61;49;
77699;PMS5003;66867;42.658;23.320;2023-02-15T05:46:01;58;48;
77699;PMS5003;66867;42.658;23.320;2023-02-15T05:48:00;65;52;
77699;PMS5003;66867;42.658;23.320;2023-02-15T05:49:00;61;51;
77699;PMS5003;66867;42.658;23.320;2023-02-15T05:50:00;65;52;
77699;PMS5003;66867;42.658;23.320;2023-02-15T05:51:02;67;54;
77699;PMS5003;66867;42.658;23.320;2023-02-15T05:52:00;61;51;
77699;PMS5003;66867;42.658;23.320;2023-02-15T05:53:00;67;53;
77699;PMS5003;66867;42.658;23.320;2023-02-15T05:54:00;64;48;
77699;PMS5003;66867;42.658;23.320;2023-02-15T05:55:00;58;49;
77699;PMS5003;66867;42.658;23.320;2023-02-15T05:56:01;64;52;
77699;PMS5003;66867;42.658;23.320;2023-02-15T05:57:00;62;52;
77699;PMS5003;66867;42.658;23.320;2023-02-15T05:58:00;63;51;
77699;PMS5003;66867;42.658;23.320;2023-02-15T05:59:00;66;52;
77699;PMS5003;66867;42.658;23.320;2023-02-15T06:00:02;58;49;
77699;PMS5003;66867;42.658;23.320;2023-02-15T06:01:07;68;54;
77699;PMS5003;66867;42.658;23.320;2023-02-15T06:02:00;66;54;
77699;PMS5003;66867;42.658;23.320;2023-02-15T06:03:00;66;53;
77699;PMS5003;66867;42.658;23.320;2023-02-15T06:04:00;64;51;
77699;PMS5003;66867;42.658;23.320;2023-02-15T06:05:00;66;51;
77699;PMS5003;66867;42.658;23.320;2023-02-15T06:06:00;67;55;
77699;PMS5003;66867;42.658;23.320;2023-02-15T06:07:00;67;55;
77699;PMS5003;66867;42.658;23.320;2023-02-15T06:08:00;70;55;
77699;PMS5003;66867;42.658;23.320;2023-02-15T06:09:00;58;50;
77699;PMS5003;66867;42.658;23.320;2023-02-15T06:10:00;66;51;
77699;PMS5003;66867;42.658;23.320;2023-02-15T06:11:00;64;51;
77699;PMS5003;66867;42.658;23.320;2023-02-15T06:12:00;65;52;
77699;PMS5003;66867;42.658;23.320;2023-02-15T06:13:00;62;51;
77699;PMS5003;66867;42.658;23.320;2023-02-15T06:14:00;62;51;
77699;PMS5003;66867;42.658;23.320;2023-02-15T06:15:00;66;53;
77699;PMS5003;66867;42.658;23.320;2023-02-15T06:16:00;62;50;
77699;PMS5003;66867;42.658;23.320;2023-02-15T06:17:00;64;52;
77699;PMS5003;66867;42.658;23.320;2023-02-15T06:18:00;64;52;
77699;PMS5003;66867;42.658;23.320;2023-02-15T06:19:00;62;51;
77699;PMS5003;66867;42.658;23.320;2023-02-15T06:20:00;66;53;
77699;PMS5003;66867;42.658;23.320;2023-02-15T06:21:00;63;52;
77699;PMS5003;66867;42.658;23.320;2023-02-15T06:22:00;66;54;
77699;PMS5003;66867;42.658;23.320;2023-02-15T06:23:00;63;51;
77699;PMS5003;66867;42.658;23.320;2023-02-15T06:24:00;62;51;
77699;PMS5003;66867;42.658;23.320;2023-02-15T06:25:00;64;51;
77699;PMS5003;66867;42.658;23.320;2023-02-15T06:26:00;62;52;
77699;PMS5003;66867;42.658;23.320;2023-02-15T06:27:00;62;51;
77699;PMS5003;66867;42.658;23.320;2023-02-15T06:28:00;66;54;
77699;PMS5003;66867;42.658;23.320;2023-02-15T06:29:00;63;54;
77699;PMS5003;66867;42.658;23.320;2023-02-15T06:30:00;62;52;
77699;PMS5003;66867;42.658;23.320;2023-02-15T06:31:00;63;50;
77699;PMS5003;66867;42.658;23.320;2023-02-15T06:32:00;71;53;
77699;PMS5003;66867;42.658;23.320;2023-02-15T06:38:00;66;53;
77699;PMS5003;66867;42.658;23.320;2023-02-15T06:39:00;65;53;
77699;PMS5003;66867;42.658;23.320;2023-02-15T06:40:00;66;53;
77699;PMS5003;66867;42.658;23.320;2023-02-15T06:41:00;60;50;
77699;PMS5003;66867;42.658;23.320;2023-02-15T06:42:00;62;49;
77699;PMS5003;66867;42.658;23.320;2023-02-15T06:43:00;60;50;
77699;PMS5003;66867;42.658;23.320;2023-02-15T06:44:00;63;51;
77699;PMS5003;66867;42.658;23.320;2023-02-15T06:45:00;58;49;
77699;PMS5003;66867;42.658;23.320;2023-02-15T06:46:00;64;52;
77699;PMS5003;66867;42.658;23.320;2023-02-15T06:47:00;65;53;
77699;PMS5003;66867;42.658;23.320;2023-02-15T06:48:00;60;50;
77699;PMS5003;66867;42.658;23.320;2023-02-15T06:49:00;61;51;
77699;PMS5003;66867;42.658;23.320;2023-02-15T06:50:00;55;47;
77699;PMS5003;66867;42.658;23.320;2023-02-15T06:51:00;63;50;
77699;PMS5003;66867;42.658;23.320;2023-02-15T06:52:00;61;52;
77699;PMS5003;66867;42.658;23.320;2023-02-15T06:53:00;62;52;
77699;PMS5003;66867;42.658;23.320;2023-02-15T06:54:00;58;49;
77699;PMS5003;66867;42.658;23.320;2023-02-15T06:55:00;60;49;
77699;PMS5003;66867;42.658;23.320;2023-02-15T06:56:02;60;49;
77699;PMS5003;66867;42.658;23.320;2023-02-15T06:57:00;64;52;
77699;PMS5003;66867;42.658;23.320;2023-02-15T06:58:00;63;50;
77699;PMS5003;66867;42.658;23.320;2023-02-15T06:59:01;57;47;
77699;PMS5003;66867;42.658;23.320;2023-02-15T07:00:00;62;51;
77699;PMS5003;66867;42.658;23.320;2023-02-15T07:01:00;60;50;
77699;PMS5003;66867;42.658;23.320;2023-02-15T07:02:00;59;48;